sensor_id;sensor_type;location;lat;lon;timestamp;P1;durP1;ratioP1;P2;durP2;ratioP2
3647;SDS011;1840;48.892;15.312;2024-03-02T00:01:55;73.30;;;37.20;;
3647;SDS011;1840;48.892;15.312;2024-03-02T00:04:23;82.20;;;43.00;;
3647;SDS011;1840;48.892;15.312;2024-03-02T00:06:52;83.43;;;43.07;;
3647;SDS011;1840;48.892;15.312;2024-03-02T00:09:22;88.70;;;42.63;;
3647;SDS011;1840;48.892;15.312;2024-03-02T00:11:53;92.83;;;45.43;;
3647;SDS011;1840;48.892;15.312;2024-03-02T00:14:21;91.90;;;44.90;;
3647;SDS011;1840;48.892;15.312;2024-03-02T00:16:50;90.30;;;45.20;;
3647;SDS011;1840;48.892;15.312;2024-03-02T00:19:19;93.93;;;45.80;;
3647;SDS011;1840;48.892;15.312;2024-03-02T00:21:48;85.97;;;46.40;;
3647;SDS011;1840;48.892;15.312;2024-03-02T00:24:18;98.00;;;47.27;;
3647;SDS011;1840;48.892;15.312;2024-03-02T00:26:49;94.23;;;46.40;;
3647;SDS011;1840;48.892;15.312;2024-03-02T00:29:19;89.23;;;45.60;;
3647;SDS011;1840;48.892;15.312;2024-03-02T00:31:47;87.33;;;42.90;;
3647;SDS011;1840;48.892;15.312;2024-03-02T00:34:16;99.27;;;45.17;;
3647;SDS011;1840;48.892;15.312;2024-03-02T00:36:45;93.87;;;43.90;;
3647;SDS011;1840;48.892;15.312;2024-03-02T00:39:14;82.50;;;41.60;;
3647;SDS011;1840;48.892;15.312;2024-03-02T00:41:44;83.57;;;44.50;;
3647;SDS011;1840;48.892;15.312;2024-03-02T00:44:14;92.60;;;44.23;;
3647;SDS011;1840;48.892;15.312;2024-03-02T00:46:45;77.53;;;42.00;;
3647;SDS011;1840;48.892;15.312;2024-03-02T00:49:17;87.13;;;44.33;;
3647;SDS011;1840;48.892;15.312;2024-03-02T00:51:48;90.53;;;43.10;;
3647;SDS011;1840;48.892;15.312;2024-03-02T00:54:19;86.30;;;41.77;;
3647;SDS011;1840;48.892;15.312;2024-03-02T00:56:48;85.67;;;43.23;;
3647;SDS011;1840;48.892;15.312;2024-03-02T00:59:16;87.80;;;43.10;;
3647;SDS011;1840;48.892;15.312;2024-03-02T01:01:47;78.80;;;43.33;;
3647;SDS011;1840;48.892;15.312;2024-03-02T01:04:16;79.33;;;42.77;;
3647;SDS011;1840;48.892;15.312;2024-03-02T01:06:45;82.80;;;41.60;;
3647;SDS011;1840;48.892;15.312;2024-03-02T01:09:14;85.70;;;43.43;;
3647;SDS011;1840;48.892;15.312;2024-03-02T01:11:44;85.93;;;43.63;;
3647;SDS011;1840;48.892;15.312;2024-03-02T01:14:13;82.27;;;41.67;;
3647;SDS011;1840;48.892;15.312;2024-03-02T01:16:42;83.50;;;40.17;;
3647;SDS011;1840;48.892;15.312;2024-03-02T01:19:12;90.83;;;42.57;;
3647;SDS011;1840;48.892;15.312;2024-03-02T01:21:41;82.40;;;42.43;;
3647;SDS011;1840;48.892;15.312;2024-03-02T01:24:09;86.70;;;44.33;;
3647;SDS011;1840;48.892;15.312;2024-03-02T01:26:39;82.07;;;43.00;;
3647;SDS011;1840;48.892;15.312;2024-03-02T01:29:08;92.03;;;44.73;;
3647;SDS011;1840;48.892;15.312;2024-03-02T01:31:36;79.87;;;41.97;;
3647;SDS011;1840;48.892;15.312;2024-03-02T01:34:06;91.20;;;44.87;;
3647;SDS011;1840;48.892;15.312;2024-03-02T01:36:36;100.43;;;47.60;;
3647;SDS011;1840;48.892;15.312;2024-03-02T01:39:04;93.40;;;43.27;;
3647;SDS011;1840;48.892;15.312;2024-03-02T01:41:35;85.30;;;45.27;;
3647;SDS011;1840;48.892;15.312;2024-03-02T01:44:04;86.70;;;44.13;;
3647;SDS011;1840;48.892;15.312;2024-03-02T01:46:33;92.17;;;44.50;;
3647;SDS011;1840;48.892;15.312;2024-03-02T01:49:02;93.20;;;47.20;;
3647;SDS011;1840;48.892;15.312;2024-03-02T01:51:31;96.97;;;45.60;;
3647;SDS011;1840;48.892;15.312;2024-03-02T01:54:01;89.43;;;45.63;;
3647;SDS011;1840;48.892;15.312;2024-03-02T01:56:29;99.70;;;46.77;;
3647;SDS011;1840;48.892;15.312;2024-03-02T01:58:58;89.73;;;45.43;;
3647;SDS011;1840;48.892;15.312;2024-03-02T02:01:27;93.23;;;47.27;;
3647;SDS011;1840;48.892;15.312;2024-03-02T02:03:55;85.43;;;44.00;;
3647;SDS011;1840;48.892;15.312;2024-03-02T02:06:24;82.13;;;41.97;;
3647;SDS011;1840;48.892;15.312;2024-03-02T02:08:52;74.93;;;39.97;;
3647;SDS011;1840;48.892;15.312;2024-03-02T02:11:22;72.00;;;38.93;;
3647;SDS011;1840;48.892;15.312;2024-03-02T02:13:51;79.03;;;39.70;;
3647;SDS011;1840;48.892;15.312;2024-03-02T02:16:21;78.73;;;41.63;;
3647;SDS011;1840;48.892;15.312;2024-03-02T02:18:50;81.27;;;41.60;;
3647;SDS011;1840;48.892;15.312;2024-03-02T02:21:23;81.90;;;41.03;;
3647;SDS011;1840;48.892;15.312;2024-03-02T02:23:51;74.33;;;39.33;;
3647;SDS011;1840;48.892;15.312;2024-03-02T02:26:20;67.73;;;35.20;;
3647;SDS011;1840;48.892;15.312;2024-03-02T02:28:48;67.50;;;36.53;;
3647;SDS011;1840;48.892;15.312;2024-03-02T02:31:16;59.90;;;32.73;;
3647;SDS011;1840;48.892;15.312;2024-03-02T02:33:45;62.57;;;32.87;;
3647;SDS011;1840;48.892;15.312;2024-03-02T02:36:14;60.77;;;31.20;;
3647;SDS011;1840;48.892;15.312;2024-03-02T02:38:45;61.60;;;30.63;;
3647;SDS011;1840;48.892;15.312;2024-03-02T02:41:15;62.57;;;31.60;;
3647;SDS011;1840;48.892;15.312;2024-03-02T02:43:44;62.40;;;33.30;;
3647;SDS011;1840;48.892;15.312;2024-03-02T02:46:12;58.47;;;31.17;;
3647;SDS011;1840;48.892;15.312;2024-03-02T02:48:41;61.57;;;31.80;;
3647;SDS011;1840;48.892;15.312;2024-03-02T02:51:09;62.37;;;33.57;;
3647;SDS011;1840;48.892;15.312;2024-03-02T02:53:37;55.73;;;30.60;;
3647;SDS011;1840;48.892;15.312;2024-03-02T02:56:08;60.57;;;33.60;;
3647;SDS011;1840;48.892;15.312;2024-03-02T02:58:36;60.67;;;32.30;;
3647;SDS011;1840;48.892;15.312;2024-03-02T03:01:05;62.67;;;32.80;;
3647;SDS011;1840;48.892;15.312;2024-03-02T03:03:34;58.57;;;29.07;;
3647;SDS011;1840;48.892;15.312;2024-03-02T03:06:02;57.90;;;31.93;;
3647;SDS011;1840;48.892;15.312;2024-03-02T03:08:31;54.73;;;30.57;;
3647;SDS011;1840;48.892;15.312;2024-03-02T03:10:59;54.10;;;27.97;;
3647;SDS011;1840;48.892;15.312;2024-03-02T03:13:29;56.00;;;29.60;;
3647;SDS011;1840;48.892;15.312;2024-03-02T03:15:58;66.77;;;30.50;;
3647;SDS011;1840;48.892;15.312;2024-03-02T03:18:27;58.07;;;31.97;;
3647;SDS011;1840;48.892;15.312;2024-03-02T03:20:55;64.63;;;33.90;;
3647;SDS011;1840;48.892;15.312;2024-03-02T03:23:23;69.67;;;34.13;;
3647;SDS011;1840;48.892;15.312;2024-03-02T03:25:52;61.30;;;33.43;;
3647;SDS011;1840;48.892;15.312;2024-03-02T03:28:20;67.10;;;33.40;;
3647;SDS011;1840;48.892;15.312;2024-03-02T03:30:50;69.83;;;39.13;;
3647;SDS011;1840;48.892;15.312;2024-03-02T03:33:18;72.20;;;36.77;;
3647;SDS011;1840;48.892;15.312;2024-03-02T03:35:46;68.83;;;36.10;;
3647;SDS011;1840;48.892;15.312;2024-03-02T03:38:15;73.07;;;37.50;;
3647;SDS011;1840;48.892;15.312;2024-03-02T03:40:43;73.97;;;35.50;;
3647;SDS011;1840;48.892;15.312;2024-03-02T03:43:11;84.03;;;40.60;;
3647;SDS011;1840;48.892;15.312;2024-03-02T03:45:40;74.50;;;39.07;;
3647;SDS011;1840;48.892;15.312;2024-03-02T03:48:10;66.97;;;34.10;;
3647;SDS011;1840;48.892;15.312;2024-03-02T03:50:39;70.73;;;36.57;;
3647;SDS011;1840;48.892;15.312;2024-03-02T03:53:08;68.57;;;35.27;;
3647;SDS011;1840;48.892;15.312;2024-03-02T03:55:36;80.30;;;41.17;;
3647;SDS011;1840;48.892;15.312;2024-03-02T03:58:05;71.90;;;36.03;;
3647;SDS011;1840;48.892;15.312;2024-03-02T04:00:33;82.07;;;40.90;;
3647;SDS011;1840;48.892;15.312;2024-03-02T04:03:01;71.10;;;35.40;;
3647;SDS011;1840;48.892;15.312;2024-03-02T04:05:31;75.30;;;34.80;;
3647;SDS011;1840;48.892;15.312;2024-03-02T04:08:00;57.73;;;29.83;;
3647;SDS011;1840;48.892;15.312;2024-03-02T04:10:29;56.03;;;29.87;;
3647;SDS011;1840;48.892;15.312;2024-03-02T04:12:57;55.77;;;31.27;;
3647;SDS011;1840;48.892;15.312;2024-03-02T04:15:26;55.17;;;30.50;;
3647;SDS011;1840;48.892;15.312;2024-03-02T04:17:54;66.60;;;34.43;;
3647;SDS011;1840;48.892;15.312;2024-03-02T04:20:22;63.17;;;32.43;;
3647;SDS011;1840;48.892;15.312;2024-03-02T04:22:53;54.43;;;29.50;;
3647;SDS011;1840;48.892;15.312;2024-03-02T04:25:21;58.37;;;31.47;;
3647;SDS011;1840;48.892;15.312;2024-03-02T04:27:50;53.73;;;29.10;;
3647;SDS011;1840;48.892;15.312;2024-03-02T04:30:18;55.30;;;29.47;;
3647;SDS011;1840;48.892;15.312;2024-03-02T04:32:47;60.57;;;31.33;;
3647;SDS011;1840;48.892;15.312;2024-03-02T04:35:16;56.27;;;32.20;;
3647;SDS011;1840;48.892;15.312;2024-03-02T04:37:45;75.43;;;35.03;;
3647;SDS011;1840;48.892;15.312;2024-03-02T04:40:15;70.53;;;35.33;;
3647;SDS011;1840;48.892;15.312;2024-03-02T04:42:43;62.93;;;33.00;;
3647;SDS011;1840;48.892;15.312;2024-03-02T04:45:11;70.67;;;36.00;;
3647;SDS011;1840;48.892;15.312;2024-03-02T04:47:40;81.70;;;38.77;;
3647;SDS011;1840;48.892;15.312;2024-03-02T04:50:09;65.60;;;36.33;;
3647;SDS011;1840;48.892;15.312;2024-03-02T04:52:37;76.10;;;40.30;;
3647;SDS011;1840;48.892;15.312;2024-03-02T04:55:05;91.13;;;42.80;;
3647;SDS011;1840;48.892;15.312;2024-03-02T04:57:47;85.47;;;41.63;;
3647;SDS011;1840;48.892;15.312;2024-03-02T05:00:17;90.77;;;46.37;;
3647;SDS011;1840;48.892;15.312;2024-03-02T05:02:46;98.77;;;47.60;;
3647;SDS011;1840;48.892;15.312;2024-03-02T05:05:14;98.00;;;46.20;;
3647;SDS011;1840;48.892;15.312;2024-03-02T05:07:43;100.97;;;47.47;;
3647;SDS011;1840;48.892;15.312;2024-03-02T05:10:11;101.03;;;44.50;;
3647;SDS011;1840;48.892;15.312;2024-03-02T05:12:41;92.23;;;45.40;;
3647;SDS011;1840;48.892;15.312;2024-03-02T05:15:25;92.80;;;43.23;;
3647;SDS011;1840;48.892;15.312;2024-03-02T05:17:56;66.47;;;36.37;;
3647;SDS011;1840;48.892;15.312;2024-03-02T05:20:26;70.23;;;36.30;;
3647;SDS011;1840;48.892;15.312;2024-03-02T05:22:54;69.63;;;36.20;;
3647;SDS011;1840;48.892;15.312;2024-03-02T05:25:23;67.10;;;36.17;;
3647;SDS011;1840;48.892;15.312;2024-03-02T05:27:52;71.33;;;37.80;;
3647;SDS011;1840;48.892;15.312;2024-03-02T05:30:21;79.33;;;39.17;;
3647;SDS011;1840;48.892;15.312;2024-03-02T05:32:51;79.23;;;39.07;;
3647;SDS011;1840;48.892;15.312;2024-03-02T05:35:19;75.90;;;38.40;;
3647;SDS011;1840;48.892;15.312;2024-03-02T05:37:48;93.30;;;45.93;;
3647;SDS011;1840;48.892;15.312;2024-03-02T05:40:16;94.83;;;43.90;;
3647;SDS011;1840;48.892;15.312;2024-03-02T05:42:48;90.80;;;44.40;;
3647;SDS011;1840;48.892;15.312;2024-03-02T05:45:17;95.33;;;45.67;;
3647;SDS011;1840;48.892;15.312;2024-03-02T05:47:45;102.63;;;48.90;;
3647;SDS011;1840;48.892;15.312;2024-03-02T05:50:15;111.47;;;51.90;;
3647;SDS011;1840;48.892;15.312;2024-03-02T05:52:44;106.77;;;51.23;;
3647;SDS011;1840;48.892;15.312;2024-03-02T05:55:13;107.67;;;49.57;;
3647;SDS011;1840;48.892;15.312;2024-03-02T05:57:41;104.17;;;49.43;;
3647;SDS011;1840;48.892;15.312;2024-03-02T06:00:25;107.10;;;50.10;;
3647;SDS011;1840;48.892;15.312;2024-03-02T06:02:54;97.93;;;47.90;;
3647;SDS011;1840;48.892;15.312;2024-03-02T06:05:24;94.07;;;49.00;;
3647;SDS011;1840;48.892;15.312;2024-03-02T06:07:53;95.00;;;43.93;;
3647;SDS011;1840;48.892;15.312;2024-03-02T06:10:21;79.00;;;41.60;;
3647;SDS011;1840;48.892;15.312;2024-03-02T06:12:49;95.50;;;42.87;;
3647;SDS011;1840;48.892;15.312;2024-03-02T06:15:18;81.10;;;41.53;;
3647;SDS011;1840;48.892;15.312;2024-03-02T06:17:46;104.13;;;50.60;;
3647;SDS011;1840;48.892;15.312;2024-03-02T06:20:15;117.40;;;52.73;;
3647;SDS011;1840;48.892;15.312;2024-03-02T06:22:45;137.10;;;68.40;;
3647;SDS011;1840;48.892;15.312;2024-03-02T06:25:13;113.67;;;54.23;;
3647;SDS011;1840;48.892;15.312;2024-03-02T06:27:42;104.43;;;54.33;;
3647;SDS011;1840;48.892;15.312;2024-03-02T06:30:09;127.03;;;64.50;;
3647;SDS011;1840;48.892;15.312;2024-03-02T06:32:39;97.10;;;47.33;;
3647;SDS011;1840;48.892;15.312;2024-03-02T06:35:07;103.87;;;49.93;;
3647;SDS011;1840;48.892;15.312;2024-03-02T06:37:37;87.70;;;46.07;;
3647;SDS011;1840;48.892;15.312;2024-03-02T06:40:08;102.23;;;51.47;;
3647;SDS011;1840;48.892;15.312;2024-03-02T06:42:37;99.40;;;48.23;;
3647;SDS011;1840;48.892;15.312;2024-03-02T06:45:06;114.37;;;57.37;;
3647;SDS011;1840;48.892;15.312;2024-03-02T06:47:34;92.53;;;48.80;;
3647;SDS011;1840;48.892;15.312;2024-03-02T06:50:03;98.70;;;46.83;;
3647;SDS011;1840;48.892;15.312;2024-03-02T06:52:33;88.83;;;43.27;;
3647;SDS011;1840;48.892;15.312;2024-03-02T06:55:01;103.23;;;50.20;;
3647;SDS011;1840;48.892;15.312;2024-03-02T06:57:32;95.40;;;51.57;;
3647;SDS011;1840;48.892;15.312;2024-03-02T07:00:01;141.27;;;61.47;;
3647;SDS011;1840;48.892;15.312;2024-03-02T07:02:31;128.03;;;64.47;;
3647;SDS011;1840;48.892;15.312;2024-03-02T07:05:00;171.47;;;87.97;;
3647;SDS011;1840;48.892;15.312;2024-03-02T07:07:28;119.80;;;58.87;;
3647;SDS011;1840;48.892;15.312;2024-03-02T07:09:58;101.03;;;50.80;;
3647;SDS011;1840;48.892;15.312;2024-03-02T07:12:26;100.73;;;50.30;;
3647;SDS011;1840;48.892;15.312;2024-03-02T07:14:57;99.20;;;49.17;;
3647;SDS011;1840;48.892;15.312;2024-03-02T07:17:50;91.83;;;46.10;;
3647;SDS011;1840;48.892;15.312;2024-03-02T07:20:18;96.20;;;46.77;;
3647;SDS011;1840;48.892;15.312;2024-03-02T07:22:47;84.13;;;42.73;;
3647;SDS011;1840;48.892;15.312;2024-03-02T07:25:16;91.30;;;46.67;;
3647;SDS011;1840;48.892;15.312;2024-03-02T07:27:50;79.70;;;39.50;;
3647;SDS011;1840;48.892;15.312;2024-03-02T07:30:20;76.10;;;40.87;;
3647;SDS011;1840;48.892;15.312;2024-03-02T07:32:50;68.27;;;34.27;;
3647;SDS011;1840;48.892;15.312;2024-03-02T07:35:18;75.30;;;39.17;;
3647;SDS011;1840;48.892;15.312;2024-03-02T07:37:48;85.67;;;45.40;;
3647;SDS011;1840;48.892;15.312;2024-03-02T07:40:17;80.20;;;39.40;;
3647;SDS011;1840;48.892;15.312;2024-03-02T07:42:46;66.90;;;37.30;;
3647;SDS011;1840;48.892;15.312;2024-03-02T07:45:14;62.53;;;35.27;;
3647;SDS011;1840;48.892;15.312;2024-03-02T07:47:44;70.80;;;35.93;;
3647;SDS011;1840;48.892;15.312;2024-03-02T07:50:14;61.17;;;33.73;;
3647;SDS011;1840;48.892;15.312;2024-03-02T07:52:42;72.93;;;37.57;;
3647;SDS011;1840;48.892;15.312;2024-03-02T07:55:11;74.83;;;36.10;;
3647;SDS011;1840;48.892;15.312;2024-03-02T07:57:43;61.97;;;32.27;;
3647;SDS011;1840;48.892;15.312;2024-03-02T08:00:12;74.47;;;37.50;;
3647;SDS011;1840;48.892;15.312;2024-03-02T08:02:41;69.13;;;34.97;;
3647;SDS011;1840;48.892;15.312;2024-03-02T08:05:11;63.87;;;34.70;;
3647;SDS011;1840;48.892;15.312;2024-03-02T08:07:40;62.00;;;33.67;;
3647;SDS011;1840;48.892;15.312;2024-03-02T08:10:09;68.30;;;33.47;;
3647;SDS011;1840;48.892;15.312;2024-03-02T08:12:41;63.00;;;36.83;;
3647;SDS011;1840;48.892;15.312;2024-03-02T08:15:09;69.17;;;32.40;;
3647;SDS011;1840;48.892;15.312;2024-03-02T08:17:39;64.70;;;32.43;;
3647;SDS011;1840;48.892;15.312;2024-03-02T08:20:12;62.33;;;33.70;;
3647;SDS011;1840;48.892;15.312;2024-03-02T08:22:41;61.07;;;33.50;;
3647;SDS011;1840;48.892;15.312;2024-03-02T08:25:10;60.90;;;33.60;;
3647;SDS011;1840;48.892;15.312;2024-03-02T08:27:39;67.67;;;34.63;;
3647;SDS011;1840;48.892;15.312;2024-03-02T08:30:08;61.47;;;32.73;;
3647;SDS011;1840;48.892;15.312;2024-03-02T08:32:37;75.00;;;42.73;;
3647;SDS011;1840;48.892;15.312;2024-03-02T08:35:07;63.33;;;37.10;;
3647;SDS011;1840;48.892;15.312;2024-03-02T08:37:38;61.43;;;34.13;;
3647;SDS011;1840;48.892;15.312;2024-03-02T08:40:09;59.53;;;33.27;;
3647;SDS011;1840;48.892;15.312;2024-03-02T08:42:43;64.00;;;32.43;;
3647;SDS011;1840;48.892;15.312;2024-03-02T08:45:12;64.30;;;34.57;;
3647;SDS011;1840;48.892;15.312;2024-03-02T08:47:40;81.60;;;32.87;;
3647;SDS011;1840;48.892;15.312;2024-03-02T08:50:10;61.07;;;32.70;;
3647;SDS011;1840;48.892;15.312;2024-03-02T08:52:40;61.53;;;32.70;;
3647;SDS011;1840;48.892;15.312;2024-03-02T08:55:09;61.77;;;30.73;;
3647;SDS011;1840;48.892;15.312;2024-03-02T08:57:38;61.87;;;31.40;;
3647;SDS011;1840;48.892;15.312;2024-03-02T09:00:08;56.90;;;29.63;;
3647;SDS011;1840;48.892;15.312;2024-03-02T09:02:40;63.83;;;31.40;;
3647;SDS011;1840;48.892;15.312;2024-03-02T09:05:08;58.83;;;29.70;;
3647;SDS011;1840;48.892;15.312;2024-03-02T09:07:39;54.67;;;28.43;;
3647;SDS011;1840;48.892;15.312;2024-03-02T09:10:08;54.03;;;28.77;;
3647;SDS011;1840;48.892;15.312;2024-03-02T09:12:37;54.70;;;29.20;;
3647;SDS011;1840;48.892;15.312;2024-03-02T09:15:06;56.13;;;30.73;;
3647;SDS011;1840;48.892;15.312;2024-03-02T09:17:35;59.73;;;28.30;;
3647;SDS011;1840;48.892;15.312;2024-03-02T09:20:04;57.87;;;29.20;;
3647;SDS011;1840;48.892;15.312;2024-03-02T09:22:33;64.23;;;30.57;;
3647;SDS011;1840;48.892;15.312;2024-03-02T09:25:03;56.37;;;29.20;;
3647;SDS011;1840;48.892;15.312;2024-03-02T09:27:35;53.23;;;27.87;;
3647;SDS011;1840;48.892;15.312;2024-03-02T09:30:06;56.17;;;28.80;;
3647;SDS011;1840;48.892;15.312;2024-03-02T09:32:37;51.77;;;28.13;;
3647;SDS011;1840;48.892;15.312;2024-03-02T09:35:07;57.50;;;26.50;;
3647;SDS011;1840;48.892;15.312;2024-03-02T09:37:36;55.30;;;27.50;;
3647;SDS011;1840;48.892;15.312;2024-03-02T09:40:06;56.07;;;29.07;;
3647;SDS011;1840;48.892;15.312;2024-03-02T09:42:35;53.63;;;28.57;;
3647;SDS011;1840;48.892;15.312;2024-03-02T09:45:05;59.40;;;29.67;;
3647;SDS011;1840;48.892;15.312;2024-03-02T09:47:34;55.83;;;27.93;;
3647;SDS011;1840;48.892;15.312;2024-03-02T09:50:03;57.33;;;29.70;;
3647;SDS011;1840;48.892;15.312;2024-03-02T09:52:31;49.03;;;24.60;;
3647;SDS011;1840;48.892;15.312;2024-03-02T09:55:00;56.67;;;29.90;;
3647;SDS011;1840;48.892;15.312;2024-03-02T09:57:33;71.97;;;37.17;;
3647;SDS011;1840;48.892;15.312;2024-03-02T10:00:07;50.63;;;26.80;;
3647;SDS011;1840;48.892;15.312;2024-03-02T10:02:41;47.17;;;27.60;;
3647;SDS011;1840;48.892;15.312;2024-03-02T10:05:09;51.20;;;28.10;;
3647;SDS011;1840;48.892;15.312;2024-03-02T10:07:38;52.60;;;26.77;;
3647;SDS011;1840;48.892;15.312;2024-03-02T10:10:12;50.90;;;26.07;;
3647;SDS011;1840;48.892;15.312;2024-03-02T10:12:43;50.80;;;26.70;;
3647;SDS011;1840;48.892;15.312;2024-03-02T10:15:12;50.90;;;27.10;;
3647;SDS011;1840;48.892;15.312;2024-03-02T10:17:41;61.63;;;32.83;;
3647;SDS011;1840;48.892;15.312;2024-03-02T10:20:21;58.03;;;30.33;;
3647;SDS011;1840;48.892;15.312;2024-03-02T10:22:50;45.93;;;24.27;;
3647;SDS011;1840;48.892;15.312;2024-03-02T10:25:28;48.70;;;27.10;;
3647;SDS011;1840;48.892;15.312;2024-03-02T10:28:14;45.93;;;26.07;;
3647;SDS011;1840;48.892;15.312;2024-03-02T10:30:43;50.40;;;24.90;;
3647;SDS011;1840;48.892;15.312;2024-03-02T10:33:14;49.20;;;26.03;;
3647;SDS011;1840;48.892;15.312;2024-03-02T10:35:45;51.70;;;28.90;;
3647;SDS011;1840;48.892;15.312;2024-03-02T10:38:15;41.57;;;22.20;;
3647;SDS011;1840;48.892;15.312;2024-03-02T10:40:46;49.57;;;28.40;;
3647;SDS011;1840;48.892;15.312;2024-03-02T10:43:17;44.40;;;26.40;;
3647;SDS011;1840;48.892;15.312;2024-03-02T10:45:46;55.03;;;30.50;;
3647;SDS011;1840;48.892;15.312;2024-03-02T10:48:18;56.20;;;30.67;;
3647;SDS011;1840;48.892;15.312;2024-03-02T10:50:48;60.03;;;34.40;;
3647;SDS011;1840;48.892;15.312;2024-03-02T10:53:17;58.50;;;33.30;;
3647;SDS011;1840;48.892;15.312;2024-03-02T10:55:46;57.57;;;29.07;;
3647;SDS011;1840;48.892;15.312;2024-03-02T10:58:22;47.87;;;25.87;;
3647;SDS011;1840;48.892;15.312;2024-03-02T11:00:53;58.83;;;32.47;;
3647;SDS011;1840;48.892;15.312;2024-03-02T11:03:22;45.93;;;25.27;;
3647;SDS011;1840;48.892;15.312;2024-03-02T11:05:52;49.40;;;26.27;;
3647;SDS011;1840;48.892;15.312;2024-03-02T11:08:20;45.43;;;26.90;;
3647;SDS011;1840;48.892;15.312;2024-03-02T11:10:54;41.60;;;23.50;;
3647;SDS011;1840;48.892;15.312;2024-03-02T11:13:31;41.47;;;24.20;;
3647;SDS011;1840;48.892;15.312;2024-03-02T11:16:06;47.77;;;25.60;;
3647;SDS011;1840;48.892;15.312;2024-03-02T11:18:44;44.10;;;25.00;;
3647;SDS011;1840;48.892;15.312;2024-03-02T11:21:13;48.87;;;28.17;;
3647;SDS011;1840;48.892;15.312;2024-03-02T11:23:42;53.87;;;28.50;;
3647;SDS011;1840;48.892;15.312;2024-03-02T11:26:17;55.73;;;29.50;;
3647;SDS011;1840;48.892;15.312;2024-03-02T11:28:47;53.17;;;27.57;;
3647;SDS011;1840;48.892;15.312;2024-03-02T11:31:15;54.70;;;29.30;;
3647;SDS011;1840;48.892;15.312;2024-03-02T11:33:44;53.83;;;30.03;;
3647;SDS011;1840;48.892;15.312;2024-03-02T11:36:13;51.07;;;27.13;;
3647;SDS011;1840;48.892;15.312;2024-03-02T11:38:43;54.00;;;28.07;;
3647;SDS011;1840;48.892;15.312;2024-03-02T11:41:13;51.13;;;30.67;;
3647;SDS011;1840;48.892;15.312;2024-03-02T11:43:42;46.00;;;25.53;;
3647;SDS011;1840;48.892;15.312;2024-03-02T11:46:13;47.27;;;25.73;;
3647;SDS011;1840;48.892;15.312;2024-03-02T11:48:43;46.83;;;26.57;;
3647;SDS011;1840;48.892;15.312;2024-03-02T11:51:12;41.60;;;24.83;;
3647;SDS011;1840;48.892;15.312;2024-03-02T11:53:40;68.47;;;40.33;;
3647;SDS011;1840;48.892;15.312;2024-03-02T11:56:10;48.87;;;27.53;;
3647;SDS011;1840;48.892;15.312;2024-03-02T11:58:41;39.40;;;24.10;;
3647;SDS011;1840;48.892;15.312;2024-03-02T12:01:10;44.47;;;26.63;;
3647;SDS011;1840;48.892;15.312;2024-03-02T12:03:41;39.13;;;24.17;;
3647;SDS011;1840;48.892;15.312;2024-03-02T12:06:10;43.30;;;24.00;;
3647;SDS011;1840;48.892;15.312;2024-03-02T12:08:40;44.30;;;24.87;;
3647;SDS011;1840;48.892;15.312;2024-03-02T12:11:12;40.33;;;22.10;;
3647;SDS011;1840;48.892;15.312;2024-03-02T12:13:51;38.60;;;23.17;;
3647;SDS011;1840;48.892;15.312;2024-03-02T12:16:23;39.13;;;23.17;;
3647;SDS011;1840;48.892;15.312;2024-03-02T12:18:54;37.30;;;22.10;;
3647;SDS011;1840;48.892;15.312;2024-03-02T12:21:22;35.27;;;21.30;;
3647;SDS011;1840;48.892;15.312;2024-03-02T12:23:51;38.87;;;21.50;;
3647;SDS011;1840;48.892;15.312;2024-03-02T12:26:20;39.37;;;26.07;;
3647;SDS011;1840;48.892;15.312;2024-03-02T12:28:50;44.80;;;26.00;;
3647;SDS011;1840;48.892;15.312;2024-03-02T12:31:18;38.20;;;23.90;;
3647;SDS011;1840;48.892;15.312;2024-03-02T12:33:47;42.00;;;25.30;;
3647;SDS011;1840;48.892;15.312;2024-03-02T12:36:17;35.83;;;23.17;;
3647;SDS011;1840;48.892;15.312;2024-03-02T12:38:46;38.73;;;22.37;;
3647;SDS011;1840;48.892;15.312;2024-03-02T12:41:17;37.03;;;22.10;;
3647;SDS011;1840;48.892;15.312;2024-03-02T12:43:45;39.57;;;21.90;;
3647;SDS011;1840;48.892;15.312;2024-03-02T12:46:14;53.97;;;24.57;;
3647;SDS011;1840;48.892;15.312;2024-03-02T12:48:43;42.90;;;24.90;;
3647;SDS011;1840;48.892;15.312;2024-03-02T12:51:11;46.17;;;24.67;;
3647;SDS011;1840;48.892;15.312;2024-03-02T12:53:42;40.80;;;23.57;;
3647;SDS011;1840;48.892;15.312;2024-03-02T12:56:10;42.30;;;25.07;;
3647;SDS011;1840;48.892;15.312;2024-03-02T12:58:39;43.80;;;25.77;;
3647;SDS011;1840;48.892;15.312;2024-03-02T13:01:09;39.57;;;22.90;;
3647;SDS011;1840;48.892;15.312;2024-03-02T13:03:38;43.40;;;23.80;;
3647;SDS011;1840;48.892;15.312;2024-03-02T13:06:07;46.10;;;26.23;;
3647;SDS011;1840;48.892;15.312;2024-03-02T13:08:36;41.10;;;24.00;;
3647;SDS011;1840;48.892;15.312;2024-03-02T13:11:06;43.87;;;26.43;;
3647;SDS011;1840;48.892;15.312;2024-03-02T13:13:34;47.73;;;27.20;;
3647;SDS011;1840;48.892;15.312;2024-03-02T13:16:04;48.10;;;26.40;;
3647;SDS011;1840;48.892;15.312;2024-03-02T13:18:35;51.47;;;29.73;;
3647;SDS011;1840;48.892;15.312;2024-03-02T13:21:04;66.17;;;32.60;;
3647;SDS011;1840;48.892;15.312;2024-03-02T13:23:32;52.20;;;28.90;;
3647;SDS011;1840;48.892;15.312;2024-03-02T13:26:01;58.97;;;27.80;;
3647;SDS011;1840;48.892;15.312;2024-03-02T13:28:31;90.97;;;39.40;;
3647;SDS011;1840;48.892;15.312;2024-03-02T13:30:59;59.23;;;28.80;;
3647;SDS011;1840;48.892;15.312;2024-03-02T13:33:28;51.03;;;30.10;;
3647;SDS011;1840;48.892;15.312;2024-03-02T13:35:57;77.43;;;38.90;;
3647;SDS011;1840;48.892;15.312;2024-03-02T13:38:26;62.50;;;33.50;;
3647;SDS011;1840;48.892;15.312;2024-03-02T13:40:54;54.90;;;31.13;;
3647;SDS011;1840;48.892;15.312;2024-03-02T13:43:23;53.00;;;31.73;;
3647;SDS011;1840;48.892;15.312;2024-03-02T13:45:53;60.30;;;32.73;;
3647;SDS011;1840;48.892;15.312;2024-03-02T13:48:21;58.50;;;33.50;;
3647;SDS011;1840;48.892;15.312;2024-03-02T13:50:52;61.07;;;35.33;;
3647;SDS011;1840;48.892;15.312;2024-03-02T13:53:20;58.20;;;32.17;;
3647;SDS011;1840;48.892;15.312;2024-03-02T13:55:49;60.53;;;35.37;;
3647;SDS011;1840;48.892;15.312;2024-03-02T13:58:18;57.90;;;33.30;;
3647;SDS011;1840;48.892;15.312;2024-03-02T14:00:47;57.67;;;33.30;;
3647;SDS011;1840;48.892;15.312;2024-03-02T14:03:17;55.70;;;31.00;;
3647;SDS011;1840;48.892;15.312;2024-03-02T14:05:46;58.53;;;29.93;;
3647;SDS011;1840;48.892;15.312;2024-03-02T14:08:17;61.17;;;33.03;;
3647;SDS011;1840;48.892;15.312;2024-03-02T14:10:46;59.60;;;33.10;;
3647;SDS011;1840;48.892;15.312;2024-03-02T14:13:14;57.70;;;31.50;;
3647;SDS011;1840;48.892;15.312;2024-03-02T14:15:43;58.47;;;32.27;;
3647;SDS011;1840;48.892;15.312;2024-03-02T14:18:12;54.77;;;29.77;;
3647;SDS011;1840;48.892;15.312;2024-03-02T14:20:42;53.40;;;30.70;;
3647;SDS011;1840;48.892;15.312;2024-03-02T14:23:12;54.17;;;30.93;;
3647;SDS011;1840;48.892;15.312;2024-03-02T14:25:41;51.47;;;30.17;;
3647;SDS011;1840;48.892;15.312;2024-03-02T14:28:10;49.63;;;27.97;;
3647;SDS011;1840;48.892;15.312;2024-03-02T14:30:59;43.20;;;25.67;;
3647;SDS011;1840;48.892;15.312;2024-03-02T14:33:28;53.40;;;29.40;;
3647;SDS011;1840;48.892;15.312;2024-03-02T14:35:58;54.63;;;28.93;;
3647;SDS011;1840;48.892;15.312;2024-03-02T14:38:27;51.50;;;28.93;;
3647;SDS011;1840;48.892;15.312;2024-03-02T14:40:56;52.87;;;29.33;;
3647;SDS011;1840;48.892;15.312;2024-03-02T14:43:25;56.60;;;31.90;;
3647;SDS011;1840;48.892;15.312;2024-03-02T14:45:53;62.33;;;33.30;;
3647;SDS011;1840;48.892;15.312;2024-03-02T14:48:22;56.67;;;34.30;;